This is the latest recevied weather packets stored in our database for station/object WA9AFM-10. If no packets are shown the sender has not sent any weather packets the latest 10 day(s).
| Time | Temp. | Humidity | Pressure | Rain* | Wind** | Luminosity | Snow |
|---|---|---|---|---|---|---|---|
| 1777632027 | 8.89° C | 81% | 1013.4 hPa | 0 mm | - | - | - |
| 1777630227 | 9.44° C | 81% | 1013.1 hPa | 0 mm | - | - | - |
| 1777628426 | 9.44° C | 79% | 1013.4 hPa | 0 mm | - | - | - |
| 1777626626 | 10° C | 77% | 1013.4 hPa | 0 mm | - | - | - |
| 1777624826 | 10.56° C | 76% | 1013.1 hPa | 0 mm | - | - | - |
| 1777621227 | 11.67° C | 71% | 1013.5 hPa | 0 mm | - | - | - |
| 1777619426 | 10.56° C | 74% | 1013.6 hPa | 0 mm | - | - | - |
| 1777617626 | 10.56° C | 75% | 1013.7 hPa | 0 mm | - | - | - |
| 1777615826 | 11.11° C | 74% | 1014 hPa | 0 mm | - | - | - |
| 1777614026 | 12.22° C | 71% | 1014 hPa | 0 mm | - | - | - |
| 1777612226 | 12.78° C | 67% | 1013.6 hPa | 0 mm | - | - | - |
| 1777610426 | 12.22° C | 70% | 1013.9 hPa | 0 mm | - | - | - |
| 1777608627 | 12.22° C | 68% | 1013.6 hPa | 0 mm | - | - | - |
| 1777606827 | 12.78° C | 65% | 1013.5 hPa | 0 mm | - | - | - |
| 1777605027 | 13.33° C | 62% | 1013.1 hPa | 0 mm | - | - | - |
| 1777603226 | 15° C | 57% | 1012.8 hPa | 0 mm | - | - | - |
| 1777599627 | 16.11° C | 49% | 1011.9 hPa | 0 mm | - | - | - |
| 1777594226 | 18.33° C | 46% | 1011 hPa | 0 mm | - | - | - |
| 1777592427 | 18.89° C | 42% | 1010.9 hPa | 0 mm | - | - | - |
| 1777590627 | 19.44° C | 40% | 1010.8 hPa | 0 mm | - | - | - |
| 1777588827 | 20° C | 39% | 1010.5 hPa | 0 mm | - | - | - |
| 1777587027 | 21.11° C | 38% | 1010.4 hPa | 0 mm | - | - | - |
| 1777585226 | 20.56° C | 36% | 1010.5 hPa | 0 mm | - | - | - |
| 1777583426 | 21.11° C | 40% | 1010.6 hPa | 0 mm | - | - | - |
| 1777581627 | 20.56° C | 45% | 1010.9 hPa | 0 mm | - | - | - |
* Rain latest hour (hover to see other rain measurements)
** Current wind speed in m/s (hover to see current wind gust speed)